Terminal Aerodrome Forecast
Issued by NWS Grand Forks, ND

Home | Current Version | Previous Version | Text Only | Print | Product List | Glossary Off
Versions: 1 2 3 4 5 6 7 8 9 10 11 12 13

000
FTUS43 KFGF 271543 AAA
TAFFAR
TAF AMD
KFAR 271543Z 2716/2812 17018G25KT P6SM SCT200
     FM280200 15010KT P6SM BKN090
     FM280600 15009KT P6SM VCSH OVC080
     FM281100 16008KT P6SM VCSH OVC030=

USA.gov is the U.S. government's official web portal to all federal, state and local government web resources and services.